sensor_id;sensor_type;location;lat;lon;timestamp;P1;durP1;ratioP1;P2;durP2;ratioP2
60018;SDS011;45870;42.528;26.740;2023-05-10T00:00:26;13.88;;;8.77;;
60018;SDS011;45870;42.528;26.740;2023-05-10T00:02:52;14.38;;;9.43;;
60018;SDS011;45870;42.528;26.740;2023-05-10T00:05:18;15.82;;;9.25;;
60018;SDS011;45870;42.528;26.740;2023-05-10T00:07:44;15.48;;;9.35;;
60018;SDS011;45870;42.528;26.740;2023-05-10T00:10:10;14.48;;;9.73;;
60018;SDS011;45870;42.528;26.740;2023-05-10T00:12:38;17.63;;;8.80;;
60018;SDS011;45870;42.528;26.740;2023-05-10T00:15:04;13.23;;;9.10;;
60018;SDS011;45870;42.528;26.740;2023-05-10T00:17:30;16.73;;;9.32;;
60018;SDS011;45870;42.528;26.740;2023-05-10T00:19:56;15.98;;;9.93;;
60018;SDS011;45870;42.528;26.740;2023-05-10T00:22:22;15.60;;;9.68;;
60018;SDS011;45870;42.528;26.740;2023-05-10T00:24:48;15.63;;;9.43;;
60018;SDS011;45870;42.528;26.740;2023-05-10T00:27:14;18.98;;;10.07;;
60018;SDS011;45870;42.528;26.740;2023-05-10T00:29:39;17.25;;;10.20;;
60018;SDS011;45870;42.528;26.740;2023-05-10T00:32:05;14.07;;;9.35;;
60018;SDS011;45870;42.528;26.740;2023-05-10T00:34:31;18.10;;;9.75;;
60018;SDS011;45870;42.528;26.740;2023-05-10T00:36:57;15.25;;;9.35;;
60018;SDS011;45870;42.528;26.740;2023-05-10T00:39:22;17.48;;;9.85;;
60018;SDS011;45870;42.528;26.740;2023-05-10T00:41:48;16.88;;;9.63;;
60018;SDS011;45870;42.528;26.740;2023-05-10T00:44:14;14.52;;;9.73;;
60018;SDS011;45870;42.528;26.740;2023-05-10T00:46:40;14.18;;;9.18;;
60018;SDS011;45870;42.528;26.740;2023-05-10T00:49:06;14.77;;;9.23;;
60018;SDS011;45870;42.528;26.740;2023-05-10T00:51:32;14.02;;;9.65;;
60018;SDS011;45870;42.528;26.740;2023-05-10T00:53:58;16.25;;;9.70;;
60018;SDS011;45870;42.528;26.740;2023-05-10T00:56:23;17.40;;;9.95;;
60018;SDS011;45870;42.528;26.740;2023-05-10T00:58:50;16.65;;;9.40;;
60018;SDS011;45870;42.528;26.740;2023-05-10T01:01:16;17.88;;;9.65;;
60018;SDS011;45870;42.528;26.740;2023-05-10T01:03:41;14.15;;;9.23;;
60018;SDS011;45870;42.528;26.740;2023-05-10T01:06:07;13.40;;;9.07;;
60018;SDS011;45870;42.528;26.740;2023-05-10T01:08:35;15.60;;;9.77;;
60018;SDS011;45870;42.528;26.740;2023-05-10T01:11:01;14.20;;;9.38;;
60018;SDS011;45870;42.528;26.740;2023-05-10T01:13:37;15.85;;;9.55;;
60018;SDS011;45870;42.528;26.740;2023-05-10T01:16:06;14.85;;;8.98;;
60018;SDS011;45870;42.528;26.740;2023-05-10T01:18:34;17.27;;;9.77;;
60018;SDS011;45870;42.528;26.740;2023-05-10T01:21:12;15.63;;;9.30;;
60018;SDS011;45870;42.528;26.740;2023-05-10T01:24:09;16.50;;;9.82;;
60018;SDS011;45870;42.528;26.740;2023-05-10T01:29:33;14.93;;;9.45;;
60018;SDS011;45870;42.528;26.740;2023-05-10T01:36:23;16.35;;;9.07;;
60018;SDS011;45870;42.528;26.740;2023-05-10T01:38:18;16.45;;;9.68;;
60018;SDS011;45870;42.528;26.740;2023-05-10T01:43:46;15.50;;;9.40;;
60018;SDS011;45870;42.528;26.740;2023-05-10T01:46:20;16.77;;;9.68;;
60018;SDS011;45870;42.528;26.740;2023-05-10T01:49:08;15.88;;;8.98;;
60018;SDS011;45870;42.528;26.740;2023-05-10T01:54:09;15.00;;;8.35;;
60018;SDS011;45870;42.528;26.740;2023-05-10T01:56:38;15.90;;;10.02;;
60018;SDS011;45870;42.528;26.740;2023-05-10T01:59:09;13.65;;;8.27;;
60018;SDS011;45870;42.528;26.740;2023-05-10T02:01:39;15.10;;;8.15;;
60018;SDS011;45870;42.528;26.740;2023-05-10T02:04:06;12.70;;;7.43;;
60018;SDS011;45870;42.528;26.740;2023-05-10T02:06:34;19.60;;;8.88;;
60018;SDS011;45870;42.528;26.740;2023-05-10T02:09:01;13.77;;;8.45;;
60018;SDS011;45870;42.528;26.740;2023-05-10T02:11:28;12.98;;;8.50;;
60018;SDS011;45870;42.528;26.740;2023-05-10T02:13:55;15.35;;;9.60;;
60018;SDS011;45870;42.528;26.740;2023-05-10T02:16:23;17.17;;;9.50;;
60018;SDS011;45870;42.528;26.740;2023-05-10T02:18:51;13.07;;;9.50;;
60018;SDS011;45870;42.528;26.740;2023-05-10T02:21:19;15.32;;;8.57;;
60018;SDS011;45870;42.528;26.740;2023-05-10T02:23:46;13.90;;;8.55;;
60018;SDS011;45870;42.528;26.740;2023-05-10T02:26:15;11.15;;;7.57;;
60018;SDS011;45870;42.528;26.740;2023-05-10T02:28:43;11.98;;;7.30;;
60018;SDS011;45870;42.528;26.740;2023-05-10T02:31:10;16.27;;;7.43;;
60018;SDS011;45870;42.528;26.740;2023-05-10T02:33:37;13.63;;;8.20;;
60018;SDS011;45870;42.528;26.740;2023-05-10T02:36:05;12.20;;;7.75;;
60018;SDS011;45870;42.528;26.740;2023-05-10T02:38:33;12.05;;;7.00;;
60018;SDS011;45870;42.528;26.740;2023-05-10T02:41:00;9.60;;;6.57;;
60018;SDS011;45870;42.528;26.740;2023-05-10T02:43:28;17.13;;;8.20;;
60018;SDS011;45870;42.528;26.740;2023-05-10T02:45:57;16.02;;;8.57;;
60018;SDS011;45870;42.528;26.740;2023-05-10T02:48:23;13.13;;;8.80;;
60018;SDS011;45870;42.528;26.740;2023-05-10T02:50:48;13.55;;;9.07;;
60018;SDS011;45870;42.528;26.740;2023-05-10T02:53:23;14.82;;;8.93;;
60018;SDS011;45870;42.528;26.740;2023-05-10T02:55:57;15.68;;;9.52;;
60018;SDS011;45870;42.528;26.740;2023-05-10T02:58:26;13.68;;;9.07;;
60018;SDS011;45870;42.528;26.740;2023-05-10T03:00:52;12.95;;;8.35;;
60018;SDS011;45870;42.528;26.740;2023-05-10T03:03:18;12.73;;;8.43;;
60018;SDS011;45870;42.528;26.740;2023-05-10T03:05:44;12.80;;;9.00;;
60018;SDS011;45870;42.528;26.740;2023-05-10T03:08:10;12.52;;;9.13;;
60018;SDS011;45870;42.528;26.740;2023-05-10T03:10:38;17.73;;;10.32;;
60018;SDS011;45870;42.528;26.740;2023-05-10T03:13:16;16.25;;;10.55;;
60018;SDS011;45870;42.528;26.740;2023-05-10T03:15:58;18.67;;;9.95;;
60018;SDS011;45870;42.528;26.740;2023-05-10T03:18:43;16.77;;;10.30;;
60018;SDS011;45870;42.528;26.740;2023-05-10T03:21:13;14.38;;;9.93;;
60018;SDS011;45870;42.528;26.740;2023-05-10T03:23:41;16.15;;;10.40;;
60018;SDS011;45870;42.528;26.740;2023-05-10T03:26:13;14.55;;;10.55;;
60018;SDS011;45870;42.528;26.740;2023-05-10T03:28:45;19.88;;;9.50;;
60018;SDS011;45870;42.528;26.740;2023-05-10T03:31:13;14.60;;;9.27;;
60018;SDS011;45870;42.528;26.740;2023-05-10T03:33:49;13.25;;;8.18;;
60018;SDS011;45870;42.528;26.740;2023-05-10T03:36:15;12.70;;;7.70;;
60018;SDS011;45870;42.528;26.740;2023-05-10T03:38:59;11.00;;;6.80;;
60018;SDS011;45870;42.528;26.740;2023-05-10T03:41:25;13.85;;;6.68;;
60018;SDS011;45870;42.528;26.740;2023-05-10T03:43:51;10.52;;;6.30;;
60018;SDS011;45870;42.528;26.740;2023-05-10T03:46:17;9.25;;;6.25;;
60018;SDS011;45870;42.528;26.740;2023-05-10T03:48:42;8.57;;;5.72;;
60018;SDS011;45870;42.528;26.740;2023-05-10T03:51:08;7.32;;;5.53;;
60018;SDS011;45870;42.528;26.740;2023-05-10T03:53:33;7.70;;;5.18;;
60018;SDS011;45870;42.528;26.740;2023-05-10T03:55:59;12.82;;;5.57;;
60018;SDS011;45870;42.528;26.740;2023-05-10T03:58:25;8.32;;;5.30;;
60018;SDS011;45870;42.528;26.740;2023-05-10T04:00:51;6.75;;;4.68;;
60018;SDS011;45870;42.528;26.740;2023-05-10T04:03:17;8.73;;;5.05;;
60018;SDS011;45870;42.528;26.740;2023-05-10T04:05:43;5.80;;;4.35;;
60018;SDS011;45870;42.528;26.740;2023-05-10T04:08:09;7.95;;;4.70;;
60018;SDS011;45870;42.528;26.740;2023-05-10T04:10:34;8.30;;;5.05;;
60018;SDS011;45870;42.528;26.740;2023-05-10T04:13:00;9.00;;;4.93;;
60018;SDS011;45870;42.528;26.740;2023-05-10T04:15:26;8.23;;;4.30;;
60018;SDS011;45870;42.528;26.740;2023-05-10T04:17:51;7.85;;;4.22;;
60018;SDS011;45870;42.528;26.740;2023-05-10T04:20:17;5.85;;;4.40;;
60018;SDS011;45870;42.528;26.740;2023-05-10T04:22:43;7.13;;;4.35;;
60018;SDS011;45870;42.528;26.740;2023-05-10T04:25:08;5.22;;;4.15;;
60018;SDS011;45870;42.528;26.740;2023-05-10T04:27:34;5.90;;;4.40;;
60018;SDS011;45870;42.528;26.740;2023-05-10T04:30:00;8.63;;;4.07;;
60018;SDS011;45870;42.528;26.740;2023-05-10T04:32:26;6.68;;;4.70;;
60018;SDS011;45870;42.528;26.740;2023-05-10T04:34:52;8.13;;;4.80;;
60018;SDS011;45870;42.528;26.740;2023-05-10T04:37:18;7.07;;;4.53;;
60018;SDS011;45870;42.528;26.740;2023-05-10T04:39:43;5.95;;;4.43;;
60018;SDS011;45870;42.528;26.740;2023-05-10T04:42:09;8.30;;;4.70;;
60018;SDS011;45870;42.528;26.740;2023-05-10T04:44:35;7.65;;;4.38;;
60018;SDS011;45870;42.528;26.740;2023-05-10T04:47:01;9.05;;;4.32;;
60018;SDS011;45870;42.528;26.740;2023-05-10T04:49:28;9.52;;;4.30;;
60018;SDS011;45870;42.528;26.740;2023-05-10T04:51:54;7.18;;;4.50;;
60018;SDS011;45870;42.528;26.740;2023-05-10T04:54:20;9.55;;;4.95;;
60018;SDS011;45870;42.528;26.740;2023-05-10T04:56:46;7.00;;;4.70;;
60018;SDS011;45870;42.528;26.740;2023-05-10T04:59:12;6.70;;;4.97;;
60018;SDS011;45870;42.528;26.740;2023-05-10T05:01:38;8.15;;;4.57;;
60018;SDS011;45870;42.528;26.740;2023-05-10T05:04:03;8.95;;;4.88;;
60018;SDS011;45870;42.528;26.740;2023-05-10T05:06:29;12.45;;;5.40;;
60018;SDS011;45870;42.528;26.740;2023-05-10T05:08:54;6.95;;;5.32;;
60018;SDS011;45870;42.528;26.740;2023-05-10T05:11:20;8.93;;;5.25;;
60018;SDS011;45870;42.528;26.740;2023-05-10T05:13:46;9.35;;;6.07;;
60018;SDS011;45870;42.528;26.740;2023-05-10T05:16:11;10.55;;;6.10;;
60018;SDS011;45870;42.528;26.740;2023-05-10T05:18:37;11.40;;;5.72;;
60018;SDS011;45870;42.528;26.740;2023-05-10T05:21:03;10.23;;;6.18;;
60018;SDS011;45870;42.528;26.740;2023-05-10T05:23:39;8.90;;;6.22;;
60018;SDS011;45870;42.528;26.740;2023-05-10T05:26:04;9.05;;;6.53;;
60018;SDS011;45870;42.528;26.740;2023-05-10T05:28:30;10.18;;;6.05;;
60018;SDS011;45870;42.528;26.740;2023-05-10T05:30:59;11.95;;;6.82;;
60018;SDS011;45870;42.528;26.740;2023-05-10T05:33:25;11.10;;;6.75;;
60018;SDS011;45870;42.528;26.740;2023-05-10T05:35:51;8.88;;;6.20;;
60018;SDS011;45870;42.528;26.740;2023-05-10T05:38:16;9.43;;;5.50;;
60018;SDS011;45870;42.528;26.740;2023-05-10T05:40:42;11.63;;;5.60;;
60018;SDS011;45870;42.528;26.740;2023-05-10T05:43:08;5.95;;;4.28;;
60018;SDS011;45870;42.528;26.740;2023-05-10T05:45:33;8.35;;;4.82;;
60018;SDS011;45870;42.528;26.740;2023-05-10T05:47:59;8.40;;;4.45;;
60018;SDS011;45870;42.528;26.740;2023-05-10T05:50:25;6.20;;;4.38;;
60018;SDS011;45870;42.528;26.740;2023-05-10T05:52:51;5.85;;;4.40;;
60018;SDS011;45870;42.528;26.740;2023-05-10T05:55:16;5.97;;;4.50;;
60018;SDS011;45870;42.528;26.740;2023-05-10T05:57:42;8.98;;;4.60;;
60018;SDS011;45870;42.528;26.740;2023-05-10T06:00:08;7.32;;;4.63;;
60018;SDS011;45870;42.528;26.740;2023-05-10T06:02:34;5.97;;;4.50;;
60018;SDS011;45870;42.528;26.740;2023-05-10T06:04:59;6.18;;;4.43;;
60018;SDS011;45870;42.528;26.740;2023-05-10T06:07:25;7.05;;;4.68;;
60018;SDS011;45870;42.528;26.740;2023-05-10T06:09:51;9.05;;;5.05;;
60018;SDS011;45870;42.528;26.740;2023-05-10T06:12:16;8.43;;;4.47;;
60018;SDS011;45870;42.528;26.740;2023-05-10T06:14:42;7.70;;;4.95;;
60018;SDS011;45870;42.528;26.740;2023-05-10T06:17:08;8.73;;;4.32;;
60018;SDS011;45870;42.528;26.740;2023-05-10T06:19:33;9.00;;;3.85;;
60018;SDS011;45870;42.528;26.740;2023-05-10T06:21:59;7.32;;;4.75;;
60018;SDS011;45870;42.528;26.740;2023-05-10T06:24:25;8.57;;;4.20;;
60018;SDS011;45870;42.528;26.740;2023-05-10T06:26:52;5.65;;;4.30;;
60018;SDS011;45870;42.528;26.740;2023-05-10T06:29:17;6.85;;;4.40;;
60018;SDS011;45870;42.528;26.740;2023-05-10T06:31:43;7.18;;;4.22;;
60018;SDS011;45870;42.528;26.740;2023-05-10T06:34:09;6.65;;;4.03;;
60018;SDS011;45870;42.528;26.740;2023-05-10T06:36:38;6.45;;;4.32;;
60018;SDS011;45870;42.528;26.740;2023-05-10T06:39:04;4.15;;;3.05;;
60018;SDS011;45870;42.528;26.740;2023-05-10T06:41:30;5.18;;;3.85;;
60018;SDS011;45870;42.528;26.740;2023-05-10T06:43:56;3.10;;;2.08;;
60018;SDS011;45870;42.528;26.740;2023-05-10T06:46:21;4.93;;;1.90;;
60018;SDS011;45870;42.528;26.740;2023-05-10T06:48:47;3.47;;;2.35;;
60018;SDS011;45870;42.528;26.740;2023-05-10T06:51:13;3.97;;;2.30;;
60018;SDS011;45870;42.528;26.740;2023-05-10T06:53:38;2.85;;;2.40;;
60018;SDS011;45870;42.528;26.740;2023-05-10T06:56:04;7.22;;;3.05;;
60018;SDS011;45870;42.528;26.740;2023-05-10T06:58:30;3.28;;;2.30;;
60018;SDS011;45870;42.528;26.740;2023-05-10T07:01:03;3.35;;;2.00;;
60018;SDS011;45870;42.528;26.740;2023-05-10T07:03:30;4.90;;;2.10;;
60018;SDS011;45870;42.528;26.740;2023-05-10T07:06:01;3.60;;;2.08;;
60018;SDS011;45870;42.528;26.740;2023-05-10T07:11:00;3.63;;;1.95;;
60018;SDS011;45870;42.528;26.740;2023-05-10T07:13:30;4.18;;;2.20;;
60018;SDS011;45870;42.528;26.740;2023-05-10T07:15:57;6.60;;;2.97;;
60018;SDS011;45870;42.528;26.740;2023-05-10T07:18:23;4.28;;;2.70;;
60018;SDS011;45870;42.528;26.740;2023-05-10T07:20:49;4.28;;;2.67;;
60018;SDS011;45870;42.528;26.740;2023-05-10T07:23:15;3.83;;;2.55;;
60018;SDS011;45870;42.528;26.740;2023-05-10T07:25:44;3.80;;;2.30;;
60018;SDS011;45870;42.528;26.740;2023-05-10T07:28:14;3.42;;;2.55;;
60018;SDS011;45870;42.528;26.740;2023-05-10T07:30:42;2.95;;;2.15;;
60018;SDS011;45870;42.528;26.740;2023-05-10T07:33:08;4.82;;;2.40;;
60018;SDS011;45870;42.528;26.740;2023-05-10T07:35:35;5.32;;;2.60;;
60018;SDS011;45870;42.528;26.740;2023-05-10T07:38:00;4.55;;;2.83;;
60018;SDS011;45870;42.528;26.740;2023-05-10T07:40:26;4.00;;;2.10;;
60018;SDS011;45870;42.528;26.740;2023-05-10T07:42:52;4.90;;;2.45;;
60018;SDS011;45870;42.528;26.740;2023-05-10T07:45:18;3.08;;;2.55;;
60018;SDS011;45870;42.528;26.740;2023-05-10T07:47:44;6.47;;;2.35;;
60018;SDS011;45870;42.528;26.740;2023-05-10T07:50:10;2.83;;;2.17;;
60018;SDS011;45870;42.528;26.740;2023-05-10T07:52:36;5.10;;;2.00;;
60018;SDS011;45870;42.528;26.740;2023-05-10T07:55:02;3.15;;;1.70;;
60018;SDS011;45870;42.528;26.740;2023-05-10T07:57:27;3.97;;;1.90;;
60018;SDS011;45870;42.528;26.740;2023-05-10T07:59:53;3.42;;;1.90;;
60018;SDS011;45870;42.528;26.740;2023-05-10T08:02:19;3.80;;;2.25;;
60018;SDS011;45870;42.528;26.740;2023-05-10T08:04:44;5.10;;;1.80;;
60018;SDS011;45870;42.528;26.740;2023-05-10T08:07:10;3.53;;;2.30;;
60018;SDS011;45870;42.528;26.740;2023-05-10T08:09:36;2.95;;;2.00;;
60018;SDS011;45870;42.528;26.740;2023-05-10T08:12:02;4.25;;;2.10;;
60018;SDS011;45870;42.528;26.740;2023-05-10T08:14:28;3.08;;;2.22;;
60018;SDS011;45870;42.528;26.740;2023-05-10T08:16:55;3.13;;;2.20;;
60018;SDS011;45870;42.528;26.740;2023-05-10T08:19:21;4.57;;;2.08;;
60018;SDS011;45870;42.528;26.740;2023-05-10T08:21:47;4.63;;;1.77;;
60018;SDS011;45870;42.528;26.740;2023-05-10T08:24:13;4.72;;;2.40;;
60018;SDS011;45870;42.528;26.740;2023-05-10T08:26:39;5.20;;;2.28;;
60018;SDS011;45870;42.528;26.740;2023-05-10T08:29:05;2.95;;;2.22;;
60018;SDS011;45870;42.528;26.740;2023-05-10T08:31:30;4.32;;;1.95;;
60018;SDS011;45870;42.528;26.740;2023-05-10T08:33:56;5.40;;;2.10;;
60018;SDS011;45870;42.528;26.740;2023-05-10T08:36:22;3.70;;;2.17;;
60018;SDS011;45870;42.528;26.740;2023-05-10T08:38:52;2.45;;;2.10;;
60018;SDS011;45870;42.528;26.740;2023-05-10T08:41:20;3.00;;;2.20;;
60018;SDS011;45870;42.528;26.740;2023-05-10T08:43:47;4.82;;;2.47;;
60018;SDS011;45870;42.528;26.740;2023-05-10T08:46:17;3.35;;;2.05;;
60018;SDS011;45870;42.528;26.740;2023-05-10T08:48:44;4.28;;;1.75;;
60018;SDS011;45870;42.528;26.740;2023-05-10T08:51:14;1.92;;;1.70;;
60018;SDS011;45870;42.528;26.740;2023-05-10T08:53:44;4.03;;;1.95;;
60018;SDS011;45870;42.528;26.740;2023-05-10T08:56:10;3.10;;;1.70;;
60018;SDS011;45870;42.528;26.740;2023-05-10T08:58:37;2.20;;;1.80;;
60018;SDS011;45870;42.528;26.740;2023-05-10T09:01:03;3.58;;;1.90;;
60018;SDS011;45870;42.528;26.740;2023-05-10T09:03:30;3.03;;;1.88;;
60018;SDS011;45870;42.528;26.740;2023-05-10T09:05:57;2.45;;;2.08;;
60018;SDS011;45870;42.528;26.740;2023-05-10T09:08:23;2.88;;;2.30;;
60018;SDS011;45870;42.528;26.740;2023-05-10T09:10:50;2.83;;;2.10;;
60018;SDS011;45870;42.528;26.740;2023-05-10T09:13:17;4.63;;;1.90;;
60018;SDS011;45870;42.528;26.740;2023-05-10T09:15:44;3.30;;;2.13;;
60018;SDS011;45870;42.528;26.740;2023-05-10T09:18:10;4.25;;;1.95;;
60018;SDS011;45870;42.528;26.740;2023-05-10T09:20:36;4.18;;;2.15;;
60018;SDS011;45870;42.528;26.740;2023-05-10T09:23:02;5.15;;;2.50;;
60018;SDS011;45870;42.528;26.740;2023-05-10T09:25:28;4.72;;;2.30;;
60018;SDS011;45870;42.528;26.740;2023-05-10T09:27:54;4.75;;;2.42;;
60018;SDS011;45870;42.528;26.740;2023-05-10T09:30:24;2.95;;;1.95;;
60018;SDS011;45870;42.528;26.740;2023-05-10T09:32:53;8.57;;;2.35;;
60018;SDS011;45870;42.528;26.740;2023-05-10T09:35:20;6.70;;;2.65;;
60018;SDS011;45870;42.528;26.740;2023-05-10T09:37:49;2.92;;;2.20;;
60018;SDS011;45870;42.528;26.740;2023-05-10T09:40:16;4.28;;;2.40;;
60018;SDS011;45870;42.528;26.740;2023-05-10T09:42:59;6.22;;;2.40;;
60018;SDS011;45870;42.528;26.740;2023-05-10T09:45:28;3.90;;;2.45;;
60018;SDS011;45870;42.528;26.740;2023-05-10T09:47:55;2.78;;;1.85;;
60018;SDS011;45870;42.528;26.740;2023-05-10T09:50:21;2.65;;;2.10;;
60018;SDS011;45870;42.528;26.740;2023-05-10T09:55:18;2.45;;;2.05;;
60018;SDS011;45870;42.528;26.740;2023-05-10T09:57:46;4.00;;;2.10;;
60018;SDS011;45870;42.528;26.740;2023-05-10T10:00:19;3.42;;;2.30;;
60018;SDS011;45870;42.528;26.740;2023-05-10T10:05:19;5.35;;;2.78;;
60018;SDS011;45870;42.528;26.740;2023-05-10T10:07:45;3.55;;;2.70;;
60018;SDS011;45870;42.528;26.740;2023-05-10T10:10:11;4.00;;;2.30;;
60018;SDS011;45870;42.528;26.740;2023-05-10T10:12:38;3.10;;;2.30;;
60018;SDS011;45870;42.528;26.740;2023-05-10T10:15:06;3.55;;;2.58;;
60018;SDS011;45870;42.528;26.740;2023-05-10T10:17:33;2.78;;;2.10;;
60018;SDS011;45870;42.528;26.740;2023-05-10T10:20:02;4.80;;;2.30;;
60018;SDS011;45870;42.528;26.740;2023-05-10T10:22:28;5.22;;;2.33;;
60018;SDS011;45870;42.528;26.740;2023-05-10T10:24:54;2.85;;;2.22;;
60018;SDS011;45870;42.528;26.740;2023-05-10T10:27:24;5.03;;;2.17;;
60018;SDS011;45870;42.528;26.740;2023-05-10T10:29:59;4.93;;;2.28;;
60018;SDS011;45870;42.528;26.740;2023-05-10T10:32:38;2.90;;;2.03;;
60018;SDS011;45870;42.528;26.740;2023-05-10T10:35:28;4.68;;;2.50;;
60018;SDS011;45870;42.528;26.740;2023-05-10T10:37:56;4.88;;;2.22;;
60018;SDS011;45870;42.528;26.740;2023-05-10T10:40:28;3.42;;;2.15;;
60018;SDS011;45870;42.528;26.740;2023-05-10T10:42:55;4.30;;;2.42;;
60018;SDS011;45870;42.528;26.740;2023-05-10T10:45:22;3.95;;;2.20;;
60018;SDS011;45870;42.528;26.740;2023-05-10T10:48:21;2.92;;;2.33;;
60018;SDS011;45870;42.528;26.740;2023-05-10T10:50:47;4.57;;;1.80;;
60018;SDS011;45870;42.528;26.740;2023-05-10T10:53:21;3.78;;;1.95;;
60018;SDS011;45870;42.528;26.740;2023-05-10T10:55:47;3.70;;;2.40;;
60018;SDS011;45870;42.528;26.740;2023-05-10T10:58:28;4.70;;;2.80;;
60018;SDS011;45870;42.528;26.740;2023-05-10T11:01:16;4.30;;;2.35;;
60018;SDS011;45870;42.528;26.740;2023-05-10T11:06:31;4.43;;;2.50;;
60018;SDS011;45870;42.528;26.740;2023-05-10T11:08:58;3.03;;;2.05;;
60018;SDS011;45870;42.528;26.740;2023-05-10T11:11:25;5.93;;;2.38;;
60018;SDS011;45870;42.528;26.740;2023-05-10T11:13:50;3.25;;;1.90;;
60018;SDS011;45870;42.528;26.740;2023-05-10T11:16:23;5.82;;;2.40;;
60018;SDS011;45870;42.528;26.740;2023-05-10T11:18:57;2.90;;;2.20;;
60018;SDS011;45870;42.528;26.740;2023-05-10T11:21:28;6.55;;;2.60;;
60018;SDS011;45870;42.528;26.740;2023-05-10T11:23:56;4.07;;;1.95;;
60018;SDS011;45870;42.528;26.740;2023-05-10T11:26:24;4.63;;;2.13;;
60018;SDS011;45870;42.528;26.740;2023-05-10T11:28:52;4.47;;;2.72;;
60018;SDS011;45870;42.528;26.740;2023-05-10T11:31:23;4.30;;;2.22;;
60018;SDS011;45870;42.528;26.740;2023-05-10T11:33:53;5.22;;;2.45;;
60018;SDS011;45870;42.528;26.740;2023-05-10T11:36:23;4.20;;;1.88;;
60018;SDS011;45870;42.528;26.740;2023-05-10T11:38:51;4.90;;;2.20;;
60018;SDS011;45870;42.528;26.740;2023-05-10T11:41:18;4.65;;;2.17;;
60018;SDS011;45870;42.528;26.740;2023-05-10T11:43:47;5.88;;;2.50;;
60018;SDS011;45870;42.528;26.740;2023-05-10T11:46:19;5.68;;;2.90;;
60018;SDS011;45870;42.528;26.740;2023-05-10T11:48:46;4.25;;;2.75;;
60018;SDS011;45870;42.528;26.740;2023-05-10T11:51:19;6.40;;;2.88;;
60018;SDS011;45870;42.528;26.740;2023-05-10T11:53:47;4.43;;;2.88;;
60018;SDS011;45870;42.528;26.740;2023-05-10T11:56:14;4.03;;;2.58;;
60018;SDS011;45870;42.528;26.740;2023-05-10T11:58:39;4.88;;;2.80;;
60018;SDS011;45870;42.528;26.740;2023-05-10T12:01:06;4.50;;;2.80;;
60018;SDS011;45870;42.528;26.740;2023-05-10T12:03:33;5.55;;;2.72;;
60018;SDS011;45870;42.528;26.740;2023-05-10T12:05:59;5.00;;;2.53;;
60018;SDS011;45870;42.528;26.740;2023-05-10T12:08:26;5.78;;;2.45;;
60018;SDS011;45870;42.528;26.740;2023-05-10T12:11:03;5.60;;;2.63;;
60018;SDS011;45870;42.528;26.740;2023-05-10T12:13:30;5.82;;;2.80;;
60018;SDS011;45870;42.528;26.740;2023-05-10T12:15:59;4.53;;;2.92;;
60018;SDS011;45870;42.528;26.740;2023-05-10T12:18:25;4.00;;;3.20;;
60018;SDS011;45870;42.528;26.740;2023-05-10T12:20:51;5.28;;;3.28;;
60018;SDS011;45870;42.528;26.740;2023-05-10T12:23:21;5.38;;;3.00;;
60018;SDS011;45870;42.528;26.740;2023-05-10T12:25:47;3.97;;;3.05;;
60018;SDS011;45870;42.528;26.740;2023-05-10T12:28:12;5.82;;;3.47;;
60018;SDS011;45870;42.528;26.740;2023-05-10T12:30:38;5.38;;;3.08;;
60018;SDS011;45870;42.528;26.740;2023-05-10T12:33:11;6.65;;;3.17;;
60018;SDS011;45870;42.528;26.740;2023-05-10T12:35:48;3.92;;;2.63;;
60018;SDS011;45870;42.528;26.740;2023-05-10T12:38:25;4.35;;;3.40;;
60018;SDS011;45870;42.528;26.740;2023-05-10T12:41:02;4.80;;;3.30;;
60018;SDS011;45870;42.528;26.740;2023-05-10T12:43:29;5.17;;;3.27;;
60018;SDS011;45870;42.528;26.740;2023-05-10T12:45:55;7.10;;;3.80;;
60018;SDS011;45870;42.528;26.740;2023-05-10T12:48:21;5.82;;;3.38;;
60018;SDS011;45870;42.528;26.740;2023-05-10T12:50:47;4.75;;;2.90;;
60018;SDS011;45870;42.528;26.740;2023-05-10T12:53:14;6.55;;;3.63;;
60018;SDS011;45870;42.528;26.740;2023-05-10T12:55:43;8.95;;;3.20;;
60018;SDS011;45870;42.528;26.740;2023-05-10T12:58:09;11.63;;;3.10;;
60018;SDS011;45870;42.528;26.740;2023-05-10T13:00:35;5.20;;;2.40;;
60018;SDS011;45870;42.528;26.740;2023-05-10T13:03:03;2.92;;;2.03;;
60018;SDS011;45870;42.528;26.740;2023-05-10T13:05:31;3.92;;;2.40;;
60018;SDS011;45870;42.528;26.740;2023-05-10T13:07:58;4.55;;;2.80;;
60018;SDS011;45870;42.528;26.740;2023-05-10T13:10:23;2.83;;;2.20;;
60018;SDS011;45870;42.528;26.740;2023-05-10T13:12:50;4.50;;;2.63;;
60018;SDS011;45870;42.528;26.740;2023-05-10T13:15:18;5.95;;;2.63;;
60018;SDS011;45870;42.528;26.740;2023-05-10T13:17:43;3.75;;;2.22;;
60018;SDS011;45870;42.528;26.740;2023-05-10T13:20:10;3.78;;;2.20;;
60018;SDS011;45870;42.528;26.740;2023-05-10T13:22:36;3.55;;;2.75;;
60018;SDS011;45870;42.528;26.740;2023-05-10T13:25:01;5.70;;;2.78;;
60018;SDS011;45870;42.528;26.740;2023-05-10T13:27:27;4.70;;;2.55;;
60018;SDS011;45870;42.528;26.740;2023-05-10T13:29:53;2.97;;;2.25;;
60018;SDS011;45870;42.528;26.740;2023-05-10T13:32:20;4.65;;;2.05;;
60018;SDS011;45870;42.528;26.740;2023-05-10T13:34:45;3.08;;;2.30;;
60018;SDS011;45870;42.528;26.740;2023-05-10T13:37:11;4.85;;;2.50;;
60018;SDS011;45870;42.528;26.740;2023-05-10T13:39:37;5.35;;;2.10;;
60018;SDS011;45870;42.528;26.740;2023-05-10T13:42:03;4.50;;;2.13;;
60018;SDS011;45870;42.528;26.740;2023-05-10T13:44:29;6.65;;;3.25;;
60018;SDS011;45870;42.528;26.740;2023-05-10T13:46:55;4.10;;;2.60;;
60018;SDS011;45870;42.528;26.740;2023-05-10T13:49:22;3.85;;;2.83;;
60018;SDS011;45870;42.528;26.740;2023-05-10T13:51:48;8.38;;;2.90;;
60018;SDS011;45870;42.528;26.740;2023-05-10T13:54:13;4.30;;;2.55;;
60018;SDS011;45870;42.528;26.740;2023-05-10T13:56:39;4.32;;;2.83;;
60018;SDS011;45870;42.528;26.740;2023-05-10T13:59:07;4.25;;;3.17;;
60018;SDS011;45870;42.528;26.740;2023-05-10T14:01:33;10.07;;;3.47;;
60018;SDS011;45870;42.528;26.740;2023-05-10T14:03:59;7.63;;;3.35;;
60018;SDS011;45870;42.528;26.740;2023-05-10T14:06:25;8.75;;;3.20;;
60018;SDS011;45870;42.528;26.740;2023-05-10T14:08:54;6.22;;;2.83;;
60018;SDS011;45870;42.528;26.740;2023-05-10T14:11:20;6.53;;;2.75;;
60018;SDS011;45870;42.528;26.740;2023-05-10T14:13:46;9.55;;;2.70;;
60018;SDS011;45870;42.528;26.740;2023-05-10T14:16:11;5.95;;;3.20;;
60018;SDS011;45870;42.528;26.740;2023-05-10T14:18:39;4.88;;;2.83;;
60018;SDS011;45870;42.528;26.740;2023-05-10T14:21:05;6.32;;;3.10;;
60018;SDS011;45870;42.528;26.740;2023-05-10T14:23:31;4.55;;;2.88;;
60018;SDS011;45870;42.528;26.740;2023-05-10T14:25:57;5.78;;;2.95;;
60018;SDS011;45870;42.528;26.740;2023-05-10T14:28:22;10.57;;;3.13;;
60018;SDS011;45870;42.528;26.740;2023-05-10T14:30:49;5.07;;;2.88;;
60018;SDS011;45870;42.528;26.740;2023-05-10T14:33:16;4.85;;;2.70;;
60018;SDS011;45870;42.528;26.740;2023-05-10T14:35:42;5.15;;;3.10;;
60018;SDS011;45870;42.528;26.740;2023-05-10T14:38:07;7.57;;;3.42;;
60018;SDS011;45870;42.528;26.740;2023-05-10T14:40:33;6.18;;;3.22;;
60018;SDS011;45870;42.528;26.740;2023-05-10T14:42:59;5.05;;;3.45;;
60018;SDS011;45870;42.528;26.740;2023-05-10T14:45:25;5.65;;;3.33;;
60018;SDS011;45870;42.528;26.740;2023-05-10T14:47:51;6.50;;;3.30;;
60018;SDS011;45870;42.528;26.740;2023-05-10T14:50:16;5.63;;;2.95;;
60018;SDS011;45870;42.528;26.740;2023-05-10T14:52:43;6.40;;;3.10;;
60018;SDS011;45870;42.528;26.740;2023-05-10T14:55:09;4.68;;;3.17;;